Salisbury, New Hampshire
Current Conditions -  °F | °C
As of 12:51 PM on Monday 24 Nov 2014 (Local Time) from KCON Reporting Station
Scattered Clouds Scattered Clouds  
Wind Chill: 64°   Ceiling: Unl
Heat Index: 64°   Visibility: 10mi
Dew Point: 60°   Wind: 10mph
Humidity: 87%   Direction: 150°SSE
Pressure: 29.57"   Gusts: NA
Location:  43.38°N, 71.72°W
Report Text: KCON 241751Z AUTO 15009KT 10SM FEW009 FEW013 SCT039 18/16 A2957 RMK AO2 SLP016 60016 T01780156 10178 20083 58036
Loading
Personal Weather Stations






























Interactive Weather Map New forecast layout! Learn more

10-Day Weather Forecast

Advertisements
Track Severe Weather on mobile